Flight Track Log - Related Links

Times and Time Zones

All times are in EDT time to prevent confusion due to time zone crossing. See the N82008 flight status page for this flight to view local times or setup timezone preferences in your user account.


Time Position Orientation Groundspeed Altitude Reporting Facility
EDT Latitude Longitude Course Direction KTS MPH feet Rate Location/Type
Sat 09:03:15 AM 33.9837 -96.4264 329° Northwest  Level FlightAware Approximate
Sat 09:06:59 AM 34.1369 -96.5378 344° North 140 161 4,700  Level Fort Worth Center
Sat 09:07:59 AM 34.1578 -96.5450 336° Northwest 119 137 5,200 550 Climbing Fort Worth Center
Sat 09:08:59 AM 34.1767 -96.5550 332° Northwest 93 107 5,800 500 Climbing Fort Worth Center
Sat 09:09:59 AM 34.1956 -96.5672 319° Northwest 75 86 6,200 400 Climbing Fort Worth Center
Sat 09:10:59 AM 34.2122 -96.5847 320° Northwest 75 86 6,600 350 Climbing Fort Worth Center
Sat 09:11:59 AM 34.2292 -96.6022 323° Northwest 80 92 6,900 350 Climbing Fort Worth Center
Sat 09:12:59 AM 34.2481 -96.6194 325° Northwest 80 92 7,300 400 Climbing Fort Worth Center
Sat 09:13:59 AM 34.2689 -96.6369 319° Northwest 80 92 7,700 350 Climbing Fort Worth Center
Sat 09:14:59 AM 34.2881 -96.6569 313° West 80 92 8,000 150 Climbing Fort Worth Center
Sat 09:15:59 AM 34.3131 -96.6894 329° Northwest 98 113 8,000  Level Fort Worth Center
Sat 09:16:59 AM 34.3508 -96.7167 327° Northwest 131 151 8,000  Level Fort Worth Center
Sat 09:17:59 AM 34.3864 -96.7442 325° Northwest 149 171 8,000  Level Fort Worth Center
Sat 09:18:59 AM 34.4222 -96.7742 331° Northwest 155 178 8,000  Level Fort Worth Center
Sat 09:19:59 AM 34.4514 -96.7939 328° Northwest 150 173 8,000  Level Fort Worth Center
Sat 09:20:59 AM 34.4911 -96.8239 325° Northwest 150 173 8,000  Level Fort Worth Center
Sat 09:21:59 AM 34.5269 -96.8539 326° Northwest 150 173 8,000  Level Fort Worth Center
Sat 09:22:59 AM 34.5603 -96.8814 329° Northwest 150 173 8,000  Level Fort Worth Center
Sat 09:23:59 AM 34.5939 -96.9064 330° Northwest 150 173 8,000  Level Fort Worth Center
Sat 09:24:59 AM 34.6294 -96.9314 327° Northwest 150 173 8,000 50 Level Fort Worth Center
Sat 09:25:59 AM 34.6650 -96.9592 327° Northwest 150 173 8,100 -100 Climbing Fort Worth Center
Sat 09:26:59 AM 34.7025 -96.9892 328° Northwest 150 173 7,800 -300 Descending Fort Worth Center
Sat 09:27:59 AM 34.7422 -97.0194 328° Northwest 150 173 7,500 -286 Descending Fort Worth Center
Sat 09:28:44 AM 34.7717 -97.0419 326° Northwest 161 185 7,300 -268 Descending Fort Worth Center
Sat 09:29:51 AM 34.8114 -97.0747 327° Northwest 160 184 7,000 -167 Descending Fort Worth Center
Sat 09:35:54 AM 35.0308 -97.2486 328° Northwest 151 174 6,100 -126 Descending Fort Worth Center
Sat 09:36:59 AM 35.0642 -97.2739 327° Northwest 150 173 6,100  Level Fort Worth Center
Sat 09:37:59 AM 35.0997 -97.3019 327° Northwest 150 173 6,100  Level Fort Worth Center
Sat 09:38:59 AM 35.1372 -97.3322 325° Northwest 150 173 6,100  Level Fort Worth Center
Sat 09:39:59 AM 35.1706 -97.3603 324° Northwest 150 173 6,100  Level Fort Worth Center
Sat 09:41:04 AM 35.2081 -97.3933 328° Northwest 147 169 6,100  Level Fort Worth Center
Sat 09:42:10 AM 35.2478 -97.4236 328° Northwest 152 175 6,100  Level Fort Worth Center
Sat 09:43:05 AM 35.2811 -97.4492 323° Northwest 154 177 6,100  Level Fort Worth Center
Sat 09:44:05 AM 35.3144 -97.4797 338° Northwest 156 180 6,100  Level Fort Worth Center
Sat 09:45:06 AM 35.3561 -97.5000 344° North 172 198 6,100 -157 Level Fort Worth Center
Sat 09:46:00 AM 35.4000 -97.5156 349° North 191 220 5,800 -330 Descending Fort Worth Center
Sat 09:46:55 AM 35.4436 -97.5258 352° North 174 200 5,500 -362 Descending Fort Worth Center
Sat 09:47:56 AM 35.4875 -97.5333 352° North 158 182 5,100 -446 Descending Fort Worth Center
Sat 09:48:56 AM 35.5314 -97.5411 349° North 154 177 4,600 -496 Descending Fort Worth Center
Sat 09:49:57 AM 35.5731 -97.5514 347° North 150 173 4,100 -246 Descending Fort Worth Center
Sat 09:50:58 AM 35.6106 -97.5617 348° North 141 162 4,100  Level Fort Worth Center
Sat 09:51:58 AM 35.6500 -97.5719 327° Northwest 148 170 4,100 -149 Level Fort Worth Center
Sat 09:52:59 AM 35.6814 -97.5975 289° West 147 169 3,800 -472 Descending Fort Worth Center
Sat 09:54:05 AM 35.6958 -97.6486 184° South 141 162 3,100 -496 Descending Fort Worth Center
Sat 09:55:00 AM 35.6667 -97.6511 169° South 127 146 2,800 -414 Descending Fort Worth Center
Sat 09:56:01 AM 35.6333 -97.6433 189° South 120 138 2,300 -347 Descending Fort Worth Center
Sat 09:57:01 AM 35.6083 -97.6483 185° South 89 102 2,100 -50 Descending Fort Worth Center
Sat 09:58:02 AM 35.5853 -97.6508 175° South 86 99 2,200 -99 Climbing Fort Worth Center
Sat 09:59:02 AM 35.5603 -97.6483 175° South 93 107 1,900 -300 Descending Fort Worth Center

Login

Don't have an account? Register now (free) for customized features, flight alerts, and more!